< < Back
Terminal Aerodrome Forecast


Current Version              Previous Versions:   1  2  3  4  5  6  7  8  9  

Terminal Aerodrome Forecast

492
FTUS42 KGSP 311738
TAFAVL
TAF
KAVL 311738Z 3118/0118 20004KT P6SM VCSH SCT050 BKN120
      TEMPO 3120/3123 2SM TSRA BR OVC035CB
     FM010800 00000KT 5SM BR VCSH SCT060
     FM011200 00000KT P6SM SCT080
     FM011600 00000KT P6SM VCTS BKN035CB=

Latest METAR

031
SAUS70 KWBC 312000 RRA
MTRAVL
METAR KAVL 311954Z 00000KT 10SM FEW120 24/16 A3002 RMK AO2 LTG DSNT N-SE
SLP140 T02440156


USA.gov is the U.S. government's official web portal to all federal, state and local government web resources and services.